createdAt,value
2023-02-11T00:01:23.456Z,8.06
2023-02-11T00:03:51.310Z,8.05
2023-02-11T00:06:19.277Z,8.03
2023-02-11T00:08:47.516Z,8.04
2023-02-11T00:11:18.725Z,8.03
2023-02-11T00:13:47.750Z,8.03
2023-02-11T00:16:17.498Z,8.03
2023-02-11T00:18:45.965Z,8.02
2023-02-11T00:21:16.548Z,8.03
2023-02-11T00:23:44.688Z,8.01
2023-02-11T00:26:13.801Z,7.99
2023-02-11T00:28:43.294Z,7.99
2023-02-11T00:31:11.406Z,7.98
2023-02-11T00:33:39.388Z,7.98
2023-02-11T00:36:09.342Z,7.97
2023-02-11T00:38:37.258Z,7.97
2023-02-11T00:41:05.453Z,7.95
2023-02-11T00:43:33.280Z,7.96
2023-02-11T00:46:02.555Z,7.95
2023-02-11T00:48:30.423Z,7.91
2023-02-11T00:50:58.222Z,7.93
2023-02-11T00:53:26.002Z,7.92
2023-02-11T00:55:53.691Z,7.92
2023-02-11T00:58:22.513Z,7.92
2023-02-11T01:00:50.565Z,7.91
2023-02-11T01:03:19.607Z,7.91
2023-02-11T01:05:47.716Z,7.91
2023-02-11T01:08:15.535Z,7.90
2023-02-11T01:10:43.967Z,7.89
2023-02-11T01:13:12.046Z,7.91
2023-02-11T01:15:39.903Z,7.92
2023-02-11T01:18:07.665Z,7.91
2023-02-11T01:20:36.809Z,7.92
2023-02-11T01:23:04.536Z,7.92
2023-02-11T01:25:32.270Z,7.91
2023-02-11T01:28:00.023Z,7.90
2023-02-11T01:30:27.803Z,7.90
2023-02-11T01:32:55.481Z,7.91
2023-02-11T01:35:23.382Z,7.91
2023-02-11T01:37:52.512Z,7.92
2023-02-11T01:40:20.507Z,7.91
2023-02-11T01:42:50.716Z,7.89
2023-02-11T01:45:54.427Z,7.91
2023-02-11T01:48:25.317Z,7.91
2023-02-11T01:50:58.388Z,7.90
2023-02-11T01:53:47.755Z,7.90
2023-02-11T01:56:34.408Z,7.89
2023-02-11T01:59:10.748Z,7.89
2023-02-11T02:01:40.792Z,7.87
2023-02-11T02:04:10.807Z,7.87
2023-02-11T02:06:45.182Z,7.88
2023-02-11T02:09:19.758Z,7.86
2023-02-11T02:11:47.440Z,7.87
2023-02-11T02:14:15.220Z,7.86
2023-02-11T02:16:43.193Z,7.87
2023-02-11T02:19:50.555Z,7.86
2023-02-11T02:22:56.034Z,7.87
2023-02-11T02:25:43.582Z,7.83
2023-02-11T02:28:23.278Z,7.84
2023-02-11T02:31:10.667Z,7.84
2023-02-11T02:33:46.404Z,7.82
2023-02-11T02:36:20.952Z,7.82
2023-02-11T02:38:55.624Z,7.83
2023-02-11T02:41:28.014Z,7.82
2023-02-11T02:43:56.332Z,7.82
2023-02-11T02:46:26.589Z,7.82
2023-02-11T02:48:56.414Z,7.81
2023-02-11T02:51:42.253Z,7.83
2023-02-11T02:54:41.049Z,7.82
2023-02-11T02:57:24.764Z,7.81
2023-02-11T03:00:05.196Z,7.80
2023-02-11T03:02:37.596Z,7.82
2023-02-11T03:05:13.134Z,7.82
2023-02-11T03:07:45.148Z,7.82
2023-02-11T03:10:17.618Z,7.83
2023-02-11T03:12:47.303Z,7.82
2023-02-11T03:15:16.008Z,7.81
2023-02-11T03:17:48.613Z,7.81
2023-02-11T03:20:21.259Z,7.81
2023-02-11T03:22:56.671Z,7.81
2023-02-11T03:25:29.795Z,7.82
2023-02-11T03:28:05.530Z,7.82
2023-02-11T03:30:39.569Z,7.81
2023-02-11T03:33:13.685Z,7.80
2023-02-11T03:35:47.109Z,7.80
2023-02-11T03:38:20.732Z,7.76
2023-02-11T03:40:48.876Z,7.78
2023-02-11T03:43:20.052Z,7.77
2023-02-11T03:45:50.429Z,7.79
2023-02-11T03:48:23.556Z,7.79
2023-02-11T03:50:54.305Z,7.79
2023-02-11T03:53:23.829Z,7.78
2023-02-11T03:55:53.806Z,7.75
2023-02-11T03:58:21.769Z,7.77
2023-02-11T04:00:50.613Z,7.77
2023-02-11T04:03:19.139Z,7.76
2023-02-11T04:05:46.934Z,7.77
2023-02-11T04:08:16.015Z,7.76
2023-02-11T04:10:43.682Z,7.77
2023-02-11T04:13:11.407Z,7.77
2023-02-11T04:15:39.164Z,7.78
2023-02-11T04:18:06.931Z,7.66
2023-02-11T04:20:34.655Z,7.76
2023-02-11T04:23:02.357Z,7.75
2023-02-11T04:25:31.585Z,7.76
2023-02-11T04:27:59.351Z,7.75
2023-02-11T04:30:27.036Z,7.75
2023-02-11T04:32:54.923Z,7.75
2023-02-11T04:35:22.763Z,7.75
2023-02-11T04:37:50.478Z,7.77
2023-02-11T04:40:18.456Z,7.75
2023-02-11T04:42:47.554Z,7.78
2023-02-11T04:45:15.292Z,7.76
2023-02-11T04:47:43.017Z,7.76
2023-02-11T04:50:11.092Z,7.78
2023-02-11T04:52:38.790Z,7.77
2023-02-11T04:55:07.408Z,7.76
2023-02-11T04:57:35.162Z,7.78
2023-02-11T05:00:04.551Z,7.77
2023-02-11T05:02:32.429Z,7.77
2023-02-11T05:05:00.200Z,7.77
2023-02-11T05:07:28.129Z,7.77
2023-02-11T05:09:55.824Z,7.76
2023-02-11T05:12:23.535Z,7.75
2023-02-11T05:14:51.233Z,7.77
2023-02-11T05:17:20.340Z,7.76
2023-02-11T05:19:48.064Z,7.75
2023-02-11T05:22:15.792Z,7.74
2023-02-11T05:24:43.530Z,7.75
2023-02-11T05:27:11.233Z,7.73
2023-02-11T05:29:39.237Z,7.74
2023-02-11T05:32:07.433Z,7.73
2023-02-11T05:34:36.533Z,7.73
2023-02-11T05:37:04.398Z,7.73
2023-02-11T05:39:32.137Z,7.72
2023-02-11T05:41:59.877Z,7.72
2023-02-11T05:44:27.723Z,7.72
2023-02-11T05:46:55.438Z,7.73
2023-02-11T05:49:23.176Z,7.72
2023-02-11T05:51:52.209Z,7.72
2023-02-11T05:54:19.945Z,7.72
2023-02-11T05:56:47.676Z,7.72
2023-02-11T05:59:16.608Z,7.73
2023-02-11T06:01:44.787Z,7.71
2023-02-11T06:04:12.555Z,7.79
2023-02-11T06:06:40.225Z,7.91
2023-02-11T06:09:10.773Z,8.08
2023-02-11T06:11:38.518Z,8.23
2023-02-11T06:14:06.335Z,8.39
2023-02-11T06:16:34.015Z,8.56
2023-02-11T06:19:01.742Z,8.64
2023-02-11T06:21:42.874Z,8.65
2023-02-11T06:24:21.655Z,8.60
2023-02-11T06:26:56.408Z,8.50
2023-02-11T06:29:24.173Z,8.39
2023-02-11T06:31:51.934Z,8.32
2023-02-11T06:34:19.637Z,8.25
2023-02-11T06:36:47.525Z,8.20
2023-02-11T06:39:16.624Z,8.16
2023-02-11T06:41:44.443Z,8.12
2023-02-11T06:44:12.267Z,8.10
2023-02-11T06:46:40.051Z,8.06
2023-02-11T06:49:07.765Z,8.03
2023-02-11T06:51:35.478Z,8.00
2023-02-11T06:54:03.228Z,7.99
2023-02-11T06:56:32.337Z,7.97
2023-02-11T06:59:00.505Z,7.96
2023-02-11T07:01:29.094Z,7.93
2023-02-11T07:03:57.470Z,7.93
2023-02-11T07:06:28.096Z,7.92
2023-02-11T07:08:56.936Z,7.82
2023-02-11T07:11:26.887Z,7.88
2023-02-11T07:13:58.498Z,7.87
2023-02-11T07:16:26.351Z,7.85
2023-02-11T07:18:54.295Z,7.84
2023-02-11T07:21:24.776Z,7.86
2023-02-11T07:23:52.510Z,7.86
2023-02-11T07:26:23.005Z,7.84
2023-02-11T07:28:51.829Z,7.84
2023-02-11T07:31:23.417Z,7.85
2023-02-11T07:33:53.184Z,7.83
2023-02-11T07:36:21.374Z,7.84
2023-02-11T07:38:49.123Z,7.82
2023-02-11T07:41:19.435Z,7.82
2023-02-11T07:43:47.332Z,7.82
2023-02-11T07:46:16.946Z,7.81
2023-02-11T07:48:46.275Z,7.92
2023-02-11T07:51:16.455Z,8.05
2023-02-11T07:53:44.546Z,8.22
2023-02-11T07:56:13.706Z,8.40
2023-02-11T07:58:43.045Z,8.51
2023-02-11T08:01:12.867Z,8.73
2023-02-11T08:03:42.757Z,8.90
2023-02-11T08:06:13.320Z,9.06
2023-02-11T08:08:41.311Z,9.16
2023-02-11T08:11:09.894Z,9.11
2023-02-11T08:13:38.054Z,9.04
2023-02-11T08:16:06.979Z,8.89
2023-02-11T08:18:36.362Z,8.77
2023-02-11T08:21:07.932Z,8.67
2023-02-11T08:23:38.088Z,8.57
2023-02-11T08:26:07.357Z,8.51
2023-02-11T08:28:37.293Z,8.44
2023-02-11T08:31:07.697Z,8.40
2023-02-11T08:33:35.705Z,8.36
2023-02-11T08:36:08.548Z,8.32
2023-02-11T08:38:37.812Z,8.28
2023-02-11T08:41:06.319Z,8.27
2023-02-11T08:43:34.043Z,8.25
2023-02-11T08:46:02.578Z,8.22
2023-02-11T08:48:31.216Z,8.20
2023-02-11T08:50:59.152Z,8.14
2023-02-11T08:53:26.948Z,8.18
2023-02-11T08:55:58.748Z,8.15
2023-02-11T08:58:26.528Z,8.13
2023-02-11T09:00:54.533Z,8.12
2023-02-11T09:03:22.407Z,8.12
2023-02-11T09:05:53.129Z,8.10
2023-02-11T09:08:21.090Z,8.09
2023-02-11T09:10:49.296Z,8.08
2023-02-11T09:13:18.538Z,8.07
2023-02-11T09:15:47.457Z,8.06
2023-02-11T09:18:15.470Z,8.07
2023-02-11T09:20:43.393Z,8.07
2023-02-11T09:23:12.355Z,8.08
2023-02-11T09:25:40.476Z,8.06
2023-02-11T09:28:08.612Z,8.06
2023-02-11T09:30:39.433Z,8.06
2023-02-11T09:33:07.264Z,8.13
2023-02-11T09:35:35.270Z,8.30
2023-02-11T09:38:03.039Z,8.49
2023-02-11T09:40:30.941Z,8.72
2023-02-11T09:43:05.275Z,8.87
2023-02-11T09:45:33.741Z,9.02
2023-02-11T09:48:06.471Z,9.10
2023-02-11T09:50:36.730Z,9.08
2023-02-11T09:53:10.998Z,9.02
2023-02-11T09:55:42.763Z,8.91
2023-02-11T09:58:14.894Z,8.83
2023-02-11T10:00:48.987Z,8.73
2023-02-11T10:03:56.837Z,8.67
2023-02-11T10:06:43.125Z,8.62
2023-02-11T10:09:34.297Z,8.58
2023-02-11T10:12:16.283Z,8.55
2023-02-11T10:15:05.183Z,8.53
2023-02-11T10:17:39.813Z,8.52
2023-02-11T10:20:24.862Z,8.49
2023-02-11T10:22:55.749Z,8.47
2023-02-11T10:25:26.305Z,8.45
2023-02-11T10:27:58.090Z,8.44
2023-02-11T10:30:32.231Z,8.44
2023-02-11T10:33:04.805Z,8.42
2023-02-11T10:35:34.260Z,8.39
2023-02-11T10:38:02.022Z,8.38
2023-02-11T10:40:32.500Z,8.40
2023-02-11T10:43:04.555Z,8.37
2023-02-11T10:45:37.105Z,8.38
2023-02-11T10:48:07.096Z,8.38
2023-02-11T10:50:37.047Z,8.36
2023-02-11T10:53:14.555Z,8.37
2023-02-11T10:55:51.320Z,8.37
2023-02-11T10:58:26.627Z,8.38
2023-02-11T11:00:56.700Z,8.48
2023-02-11T11:03:26.312Z,8.64
2023-02-11T11:05:58.722Z,8.79
2023-02-11T11:08:40.765Z,8.98
2023-02-11T11:11:10.810Z,9.17
2023-02-11T11:13:39.741Z,9.34
2023-02-11T11:16:21.402Z,9.53
2023-02-11T11:18:50.910Z,9.66
2023-02-11T11:21:23.802Z,9.79
2023-02-11T11:23:55.516Z,9.95
2023-02-11T11:26:24.016Z,10.06
2023-02-11T11:28:56.137Z,10.14
2023-02-11T11:31:27.836Z,10.20
2023-02-11T11:33:59.615Z,10.24
2023-02-11T11:36:36.266Z,10.26
2023-02-11T11:39:16.618Z,10.31
2023-02-11T11:41:52.550Z,10.34
2023-02-11T11:44:26.131Z,10.36
2023-02-11T11:47:14.828Z,10.39
2023-02-11T11:49:49.829Z,10.42
2023-02-11T11:52:27.590Z,10.43
2023-02-11T11:55:02.889Z,10.35
2023-02-11T11:57:31.034Z,10.21
2023-02-11T11:59:59.410Z,10.07
2023-02-11T12:02:53.423Z,9.85
2023-02-11T12:05:29.334Z,9.68
2023-02-11T12:08:13.150Z,9.59
2023-02-11T12:11:00.923Z,9.51
2023-02-11T12:13:41.896Z,9.44
2023-02-11T12:16:27.301Z,9.38
2023-02-11T12:19:45.892Z,9.31
2023-02-11T12:22:22.830Z,9.25
2023-02-11T12:24:57.552Z,9.20
2023-02-11T12:27:42.507Z,9.16
2023-02-11T12:30:24.100Z,9.13
2023-02-11T12:33:01.828Z,9.09
2023-02-11T12:35:37.888Z,9.08
2023-02-11T12:38:21.205Z,9.04
2023-02-11T12:41:02.739Z,9.02
2023-02-11T12:43:36.094Z,9.14
2023-02-11T12:46:24.356Z,9.31
2023-02-11T12:49:18.457Z,9.53
2023-02-11T12:52:02.196Z,9.71
2023-02-11T12:54:33.024Z,9.87
2023-02-11T12:57:07.258Z,10.08
2023-02-11T12:59:46.685Z,10.20
2023-02-11T13:02:25.317Z,10.22
2023-02-11T13:04:57.857Z,10.13
2023-02-11T13:07:32.149Z,10.01
2023-02-11T13:10:05.430Z,9.86
2023-02-11T13:12:53.920Z,9.75
2023-02-11T13:15:21.652Z,9.64
2023-02-11T13:18:01.096Z,9.57
2023-02-11T13:20:36.776Z,9.55
2023-02-11T13:23:12.637Z,9.49
2023-02-11T13:25:47.349Z,9.44
2023-02-11T13:28:34.813Z,9.40
2023-02-11T13:31:03.771Z,9.38
2023-02-11T13:33:33.935Z,9.35
2023-02-11T13:36:20.295Z,9.33
2023-02-11T13:39:00.884Z,9.29
2023-02-11T13:41:52.456Z,9.26
2023-02-11T13:44:26.179Z,9.44
2023-02-11T13:47:01.336Z,9.59
2023-02-11T13:49:36.343Z,9.66
2023-02-11T13:52:06.905Z,9.68
2023-02-11T13:54:38.088Z,9.65
2023-02-11T13:57:36.587Z,9.58
2023-02-11T14:00:27.770Z,9.62
2023-02-11T14:03:44.588Z,9.77
2023-02-11T14:06:33.061Z,9.98
2023-02-11T14:09:09.923Z,10.18
2023-02-11T14:11:45.150Z,10.34
2023-02-11T14:14:19.922Z,10.49
2023-02-11T14:17:21.230Z,10.58
2023-02-11T14:19:50.421Z,10.76
2023-02-11T14:22:23.695Z,10.74
2023-02-11T14:24:55.484Z,10.63
2023-02-11T14:27:38.556Z,10.44
2023-02-11T14:30:25.339Z,10.28
2023-02-11T14:33:11.054Z,10.07
2023-02-11T14:35:48.718Z,10.05
2023-02-11T14:38:25.946Z,10.01
2023-02-11T14:41:02.720Z,9.95
2023-02-11T14:43:32.679Z,9.90
2023-02-11T14:46:02.284Z,9.84
2023-02-11T14:48:32.624Z,9.79
2023-02-11T14:51:04.115Z,9.74
2023-02-11T14:53:34.747Z,9.70
2023-02-11T14:56:02.501Z,9.66
2023-02-11T14:58:31.769Z,9.63
2023-02-11T15:01:01.794Z,9.61
2023-02-11T15:03:34.272Z,9.58
2023-02-11T15:06:06.464Z,9.61
2023-02-11T15:08:38.267Z,9.68
2023-02-11T15:11:13.021Z,9.87
2023-02-11T15:13:47.481Z,10.06
2023-02-11T15:16:18.500Z,10.21
2023-02-11T15:18:52.496Z,10.37
2023-02-11T15:21:25.441Z,10.54
2023-02-11T15:23:58.165Z,10.55
2023-02-11T15:26:26.012Z,10.52
2023-02-11T15:28:53.785Z,10.43
2023-02-11T15:31:24.299Z,10.31
2023-02-11T15:33:54.588Z,10.13
2023-02-11T15:36:29.010Z,10.12
2023-02-11T15:39:19.622Z,10.04
2023-02-11T15:41:47.428Z,9.94
2023-02-11T15:44:33.159Z,9.91
2023-02-11T15:47:01.345Z,9.87
2023-02-11T15:49:30.479Z,9.83
2023-02-11T15:51:59.079Z,9.81
2023-02-11T15:54:31.547Z,9.77
2023-02-11T15:57:03.824Z,9.74
2023-02-11T15:59:35.495Z,9.73
2023-02-11T16:02:08.961Z,9.69
2023-02-11T16:04:38.766Z,9.68
2023-02-11T16:07:06.596Z,9.68
2023-02-11T16:09:36.121Z,9.67
2023-02-11T16:12:07.501Z,9.65
2023-02-11T16:14:39.311Z,9.65
2023-02-11T16:17:09.728Z,9.64
2023-02-11T16:19:44.852Z,9.62
2023-02-11T16:22:18.210Z,9.61
2023-02-11T16:24:49.032Z,9.59
2023-02-11T16:27:23.743Z,9.58
2023-02-11T16:29:52.148Z,9.55
2023-02-11T16:32:22.402Z,9.55
2023-02-11T16:34:52.376Z,9.54
2023-02-11T16:37:20.152Z,9.55
2023-02-11T16:39:47.972Z,9.52
2023-02-11T16:42:15.708Z,9.52
2023-02-11T16:44:43.454Z,9.50
2023-02-11T16:47:18.974Z,9.50
2023-02-11T16:49:46.772Z,9.50
2023-02-11T16:52:17.164Z,9.50
2023-02-11T16:54:45.340Z,9.50
2023-02-11T16:57:15.658Z,9.49
2023-02-11T16:59:43.515Z,9.49
2023-02-11T17:02:16.744Z,9.47
2023-02-11T17:04:45.240Z,9.45
2023-02-11T17:07:13.335Z,9.46
2023-02-11T17:09:42.505Z,9.46
2023-02-11T17:12:10.237Z,9.45
2023-02-11T17:14:37.986Z,9.46
2023-02-11T17:17:05.793Z,9.46
2023-02-11T17:19:33.538Z,9.44
2023-02-11T17:22:01.231Z,9.44
2023-02-11T17:24:29.024Z,9.43
2023-02-11T17:26:58.118Z,9.43
2023-02-11T17:29:26.671Z,9.44
2023-02-11T17:31:54.875Z,9.43
2023-02-11T17:34:23.828Z,9.42
2023-02-11T17:36:51.840Z,9.43
2023-02-11T17:39:21.093Z,9.43
2023-02-11T17:41:48.975Z,9.44
2023-02-11T17:44:18.071Z,9.44
2023-02-11T17:46:45.811Z,9.37
2023-02-11T17:49:13.760Z,9.39
2023-02-11T17:51:41.616Z,9.41
2023-02-11T17:54:12.136Z,9.42
2023-02-11T17:56:40.278Z,9.42
2023-02-11T17:59:09.390Z,9.42
2023-02-11T18:01:40.071Z,9.41
2023-02-11T18:04:09.902Z,9.41
2023-02-11T18:06:37.652Z,9.40
2023-02-11T18:09:05.484Z,9.40
2023-02-11T18:11:34.996Z,9.41
2023-02-11T18:14:04.558Z,9.40
2023-02-11T18:16:35.062Z,9.41
2023-02-11T18:19:04.746Z,9.40
2023-02-11T18:21:32.516Z,9.40
2023-02-11T18:24:05.974Z,9.42
2023-02-11T18:26:34.530Z,9.39
2023-02-11T18:29:03.782Z,9.41
2023-02-11T18:31:31.735Z,9.42
2023-02-11T18:33:59.579Z,9.43
2023-02-11T18:36:28.745Z,9.44
2023-02-11T18:38:58.078Z,9.44
2023-02-11T18:41:25.830Z,9.42
2023-02-11T18:43:54.114Z,9.44
2023-02-11T18:46:21.857Z,9.45
2023-02-11T18:48:50.133Z,9.44
2023-02-11T18:51:19.349Z,9.45
2023-02-11T18:53:48.450Z,9.46
2023-02-11T18:56:18.370Z,9.46
2023-02-11T18:58:46.179Z,9.43
2023-02-11T19:01:16.353Z,9.44
2023-02-11T19:03:44.520Z,9.42
2023-02-11T19:06:16.689Z,9.43
2023-02-11T19:08:44.479Z,9.43
2023-02-11T19:11:16.171Z,9.45
2023-02-11T19:13:43.906Z,9.49
2023-02-11T19:16:12.455Z,9.48
2023-02-11T19:18:40.203Z,9.48
2023-02-11T19:21:09.380Z,9.49
2023-02-11T19:23:37.532Z,9.48
2023-02-11T19:26:06.458Z,9.48
2023-02-11T19:28:37.187Z,9.49
2023-02-11T19:31:09.606Z,9.48
2023-02-11T19:33:38.007Z,9.49
2023-02-11T19:36:07.204Z,9.50
2023-02-11T19:38:35.256Z,9.51
2023-02-11T19:41:03.005Z,9.52
2023-02-11T19:43:30.840Z,9.51
2023-02-11T19:46:02.053Z,9.52
2023-02-11T19:48:30.090Z,9.51
2023-02-11T19:50:58.187Z,9.52
2023-02-11T19:53:25.964Z,9.51
2023-02-11T19:55:53.886Z,9.49
2023-02-11T19:58:21.795Z,9.48
2023-02-11T20:00:49.513Z,9.47
2023-02-11T20:03:18.658Z,9.46
2023-02-11T20:05:47.796Z,9.45
2023-02-11T20:08:17.023Z,9.42
2023-02-11T20:10:44.802Z,9.45
2023-02-11T20:13:12.508Z,9.43
2023-02-11T20:15:40.322Z,9.43
2023-02-11T20:18:08.171Z,9.42
2023-02-11T20:20:39.299Z,9.40
2023-02-11T20:23:07.003Z,9.40
2023-02-11T20:25:34.681Z,9.40
2023-02-11T20:28:02.440Z,9.40
2023-02-11T20:30:30.231Z,9.39
2023-02-11T20:32:58.517Z,9.39
2023-02-11T20:35:26.293Z,9.38
2023-02-11T20:37:55.410Z,9.37
2023-02-11T20:40:23.190Z,9.37
2023-02-11T20:42:50.897Z,9.36
2023-02-11T20:45:18.741Z,9.36
2023-02-11T20:47:46.439Z,9.36
2023-02-11T20:50:14.160Z,9.36
2023-02-11T20:52:41.904Z,9.37
2023-02-11T20:55:11.063Z,9.37
2023-02-11T20:57:38.820Z,9.37
2023-02-11T21:00:07.904Z,9.37
2023-02-11T21:02:35.668Z,9.37
2023-02-11T21:05:03.383Z,9.37
2023-02-11T21:07:31.384Z,9.37
2023-02-11T21:09:59.107Z,9.36
2023-02-11T21:12:28.175Z,9.36
2023-02-11T21:14:57.183Z,9.36
2023-02-11T21:17:26.359Z,9.35
2023-02-11T21:19:54.069Z,9.36
2023-02-11T21:22:21.809Z,9.35
2023-02-11T21:24:49.709Z,9.36
2023-02-11T21:27:17.469Z,9.35
2023-02-11T21:29:54.115Z,9.32
2023-02-11T21:32:22.511Z,9.34
2023-02-11T21:34:50.228Z,9.34
2023-02-11T21:37:17.929Z,9.33
2023-02-11T21:39:45.700Z,9.31
2023-02-11T21:42:13.490Z,9.30
2023-02-11T21:44:41.335Z,9.27
2023-02-11T21:47:10.467Z,9.29
2023-02-11T21:49:38.187Z,9.28
2023-02-11T21:52:06.021Z,9.28
2023-02-11T21:54:33.735Z,9.27
2023-02-11T21:57:03.135Z,9.27
2023-02-11T21:59:31.808Z,9.27
2023-02-11T22:01:59.890Z,9.27
2023-02-11T22:04:29.035Z,9.25
2023-02-11T22:06:56.881Z,9.24
2023-02-11T22:09:24.640Z,9.24
2023-02-11T22:11:53.639Z,9.22
2023-02-11T22:14:21.408Z,9.14
2023-02-11T22:16:49.297Z,9.23
2023-02-11T22:19:17.339Z,9.22
2023-02-11T22:21:46.480Z,9.21
2023-02-11T22:24:14.194Z,9.20
2023-02-11T22:26:41.966Z,9.22
2023-02-11T22:29:10.557Z,9.21
2023-02-11T22:31:38.440Z,9.21
2023-02-11T22:34:06.587Z,9.21
2023-02-11T22:36:35.762Z,9.20
2023-02-11T22:39:07.099Z,9.21
2023-02-11T22:41:35.116Z,9.19
2023-02-11T22:44:02.864Z,9.19
2023-02-11T22:46:30.868Z,9.18
2023-02-11T22:48:58.690Z,9.17
2023-02-11T22:51:28.168Z,9.15
2023-02-11T22:53:57.490Z,9.15
2023-02-11T22:56:27.946Z,9.18
2023-02-11T22:58:58.243Z,9.17
2023-02-11T23:01:25.978Z,9.16
2023-02-11T23:03:53.880Z,9.15
2023-02-11T23:06:22.531Z,9.15
2023-02-11T23:08:50.243Z,9.13
2023-02-11T23:11:21.080Z,9.13
2023-02-11T23:13:52.210Z,9.12
2023-02-11T23:16:22.364Z,9.12
2023-02-11T23:18:50.696Z,9.13
2023-02-11T23:21:21.153Z,9.13
2023-02-11T23:23:50.070Z,9.12
2023-02-11T23:26:19.109Z,9.12
2023-02-11T23:28:47.391Z,9.13
2023-02-11T23:31:18.993Z,9.12
2023-02-11T23:33:47.322Z,9.13
2023-02-11T23:36:15.896Z,9.13
2023-02-11T23:38:44.286Z,9.13
2023-02-11T23:41:12.438Z,9.12
2023-02-11T23:43:40.406Z,9.12
2023-02-11T23:46:09.320Z,9.13
2023-02-11T23:48:40.339Z,9.13
2023-02-11T23:51:09.604Z,9.13
2023-02-11T23:53:37.588Z,9.13
2023-02-11T23:56:09.070Z,9.13
2023-02-11T23:58:37.616Z,9.13
